Flight Track Log - Related Links

Times and Time Zones

All times are in EDT time to prevent confusion due to time zone crossing. See the GJS3707 flight status page for this flight to view local times or setup timezone preferences in your user account.

Time Position Orientation Groundspeed Altitude Reporting Facility
EDT Latitude Longitude Course Direction KTS MPH feet Rate Location/Type
Tue 11:04:24 AM 42.0000 -88.0000 261° West 185 213 2,900  Level Chicago TRACON
Tue 11:05:30 AM 41.9833 -88.0833 255° West 240 276 4,900 2,000 Climbing Chicago TRACON
Tue 11:06:06 AM 41.9756 -88.1364 259° West 235 270 6,300 2,449 Climbing Chicago Center
Tue 11:07:08 AM 41.9394 -88.2194 240° Southwest 259 298 8,900 2,274 Climbing Chicago Center
Tue 11:08:00 AM 41.8800 -88.7795 261° West  Level FlightAware Approximate
Tue 11:08:10 AM 41.9153 -88.3106 250° West 268 308 11,000  Level Chicago Center
Tue 11:09:00 AM 41.8627 -88.9303 261° West  Level FlightAware Approximate
Tue 11:09:11 AM 41.9019 -88.4100 260° West 274 315 13,200  Level Chicago Center
Tue 11:10:13 AM 41.8858 -88.5169 259° West 292 336 14,400 1,645 Climbing Chicago Center
Tue 11:11:15 AM 41.8658 -88.6622 260° West 327 376 16,600 2,032 Climbing Chicago Center
Tue 11:12:17 AM 41.8511 -88.7856 261° West 338 389 18,600 1,756 Climbing Chicago Center
Tue 11:13:18 AM 41.8347 -88.9131 260° West 348 400 20,200 1,756 Climbing Chicago Center
Tue 11:14:20 AM 41.8181 -89.0428 260° West 356 410 22,200 1,597 Climbing Chicago Center
Tue 11:15:22 AM 41.8042 -89.1719 262° West 354 407 23,500 1,065 Climbing Chicago Center
Tue 11:16:24 AM 41.7942 -89.3086 264° West 368 423 24,400 1,171 Climbing Chicago Center
Tue 11:17:25 AM 41.7764 -89.4800 262° West 386 444 25,900 1,122 Climbing Chicago Center
Tue 11:18:27 AM 41.7442 -89.6203 253° West 402 463 26,700 919 Climbing Chicago Center
Tue 11:19:29 AM 41.7117 -89.7669 254° West 411 473 27,800 968 Climbing Chicago Center
Tue 11:20:31 AM 41.6797 -89.9125 254° West 410 472 28,700 927 Climbing Chicago Center
Tue 11:21:32 AM 41.6583 -90.0614 259° West 411 473 29,700 780 Climbing Chicago Center
Tue 11:22:34 AM 41.6469 -90.2133 264° West 411 473 30,300 629 Climbing Chicago Center
Tue 11:23:36 AM 41.6311 -90.3972 263° West 416 479 31,000 581 Climbing Chicago Center
Tue 11:24:38 AM 41.6186 -90.5522 264° West 419 482 31,500 585 Climbing Chicago Center
Tue 11:25:39 AM 41.6056 -90.7017 263° West 421 484 32,200 732 Climbing Chicago Center
Tue 11:26:41 AM 41.5911 -90.8583 263° West 426 490 33,000 774 Climbing Chicago Center
Tue 11:27:43 AM 41.5789 -91.0119 264° West 420 483 33,800 484 Climbing Chicago Center
Tue 11:28:45 AM 41.5617 -91.1950 263° West 418 481 34,000 98 Climbing Chicago Center
Tue 11:29:46 AM 41.5481 -91.3478 263° West 416 479 34,000  Level Chicago Center
Tue 11:30:48 AM 41.5344 -91.4953 263° West 406 467 34,000  Level Chicago Center
Tue 11:31:50 AM 41.5208 -91.6458 263° West 410 472 34,000  Level Chicago Center
Tue 11:32:52 AM 41.5064 -91.8006 263° West 419 482 34,000  Level Chicago Center
Tue 11:33:54 AM 41.4917 -91.9536 263° West 419 482 34,000  Level Chicago Center
Tue 11:34:55 AM 41.4736 -92.1367 263° West 417 480 34,000  Level Chicago Center
Tue 11:35:57 AM 41.4578 -92.2886 262° West 416 479 34,000  Level Chicago Center
Tue 11:36:59 AM 41.4433 -92.4406 263° West 415 478 34,000  Level Chicago Center
Tue 11:38:01 AM 41.4272 -92.5908 262° West 414 476 34,000  Level Chicago Center
Tue 11:39:03 AM 41.4117 -92.7417 262° West 415 478 34,000  Level Chicago Center
Tue 11:39:19 AM 41.4064 -92.7997 263° West 413 475 34,000  Level Minneapolis Center
Tue 11:40:21 AM 41.3903 -92.9508 262° West 414 476 34,000  Level Minneapolis Center
Tue 11:41:23 AM 41.3744 -93.1000 262° West 413 475 34,000  Level Minneapolis Center
Tue 11:42:25 AM 41.3586 -93.2519 262° West 417 480 34,000  Level Minneapolis Center
Tue 11:43:27 AM 41.3378 -93.4347 261° West 420 483 34,000  Level Minneapolis Center
Tue 11:44:29 AM 41.3222 -93.5858 262° West 418 481 34,000  Level Minneapolis Center
Tue 11:45:30 AM 41.3061 -93.7392 262° West 421 484 34,000  Level Minneapolis Center
Tue 11:46:32 AM 41.2889 -93.8942 262° West 427 491 34,000  Level Minneapolis Center
Tue 11:47:34 AM 41.2703 -94.0506 261° West 431 496 34,000  Level Minneapolis Center
Tue 11:48:36 AM 41.2497 -94.2233 261° West 430 495 34,000  Level Minneapolis Center
Tue 11:49:38 AM 41.2314 -94.3806 261° West 431 496 34,000  Level Minneapolis Center
Tue 11:50:40 AM 41.2125 -94.5394 261° West 434 499 34,000  Level Minneapolis Center
Tue 11:51:42 AM 41.1933 -94.6975 261° West 433 498 34,000  Level Minneapolis Center
Tue 11:52:44 AM 41.1697 -94.8897 261° West 437 503 34,000  Level Minneapolis Center
Tue 11:53:45 AM 41.1489 -95.0489 260° West 437 503 34,000  Level Minneapolis Center
Tue 11:54:47 AM 41.1289 -95.2081 261° West 436 502 34,000  Level Minneapolis Center
Tue 11:55:49 AM 41.1081 -95.3661 260° West 434 499 34,000  Level Minneapolis Center
Tue 11:56:51 AM 41.0875 -95.5250 260° West 434 499 34,000  Level Minneapolis Center
Tue 11:57:53 AM 41.0656 -95.6850 260° West 436 502 34,000  Level Minneapolis Center
Tue 11:58:55 AM 41.0442 -95.8456 260° West 438 504 34,000  Level Minneapolis Center
Tue 11:59:57 AM 41.0233 -96.0069 260° West 439 505 34,000  Level Minneapolis Center
Tue 12:00:59 PM 40.9978 -96.1994 260° West 439 505 34,000  Level Minneapolis Center
Tue 12:02:01 PM 40.9764 -96.3603 260° West 440 506 34,000  Level Minneapolis Center
Tue 12:03:02 PM 40.9550 -96.5197 260° West 440 506 34,000  Level Minneapolis Center
Tue 12:04:04 PM 40.9328 -96.6797 260° West 440 506 34,000  Level Minneapolis Center
Tue 12:05:06 PM 40.9281 -96.8408 268° West 440 506 34,000  Level Minneapolis Center
Tue 12:06:08 PM 40.9361 -97.0044 274° West 443 510 34,000  Level Minneapolis Center
Tue 12:07:10 PM 40.9428 -97.1653 273° West 442 509 34,000  Level Minneapolis Center
Tue 12:08:12 PM 40.9500 -97.3256 273° West 438 504 34,000  Level Minneapolis Center
Tue 12:09:14 PM 40.9583 -97.5150 273° West 434 499 34,000  Level Minneapolis Center
Tue 12:10:16 PM 40.9650 -97.6725 273° West 430 495 34,000  Level Minneapolis Center
Tue 12:11:18 PM 40.9717 -97.8294 273° West 428 493 34,000  Level Minneapolis Center
Tue 12:12:19 PM 40.9769 -97.9853 273° West 425 489 34,000  Level Minneapolis Center
Tue 12:13:21 PM 40.9831 -98.1417 273° West 424 488 34,000  Level Minneapolis Center
Tue 12:14:23 PM 40.9889 -98.3017 273° West 429 494 34,000  Level Minneapolis Center
Tue 12:15:25 PM 40.9947 -98.4628 273° West 433 498 34,000  Level Minneapolis Center
Tue 12:16:27 PM 41.0008 -98.6586 272° West 439 505 34,000  Level Minneapolis Center
Tue 12:17:30 PM 41.0022 -98.8197 271° West 442 509 34,000  Level Minneapolis Center
Tue 12:18:31 PM 41.0103 -98.9861 274° West 450 518 34,000  Level Minneapolis Center
Tue 12:19:33 PM 41.0161 -99.1622 273° West 448 516 34,000  Level Minneapolis Center
Tue 12:20:09 PM 41.0186 -99.2603 272° West 447 514 34,000  Level Denver Center
Tue 12:21:12 PM 41.0242 -99.4256 273° West 449 517 34,000  Level Denver Center
Tue 12:22:14 PM 41.0281 -99.5883 272° West 444 511 34,000  Level Denver Center
Tue 12:23:16 PM 41.0319 -99.7481 272° West 437 503 34,000  Level Denver Center
Tue 12:24:18 PM 41.0358 -99.9286 272° West 434 499 34,000  Level Denver Center
Tue 12:25:20 PM 41.0386 -100.0797 271° West 431 496 34,000  Level Denver Center
Tue 12:26:22 PM 41.0425 -100.2556 272° West 431 496 34,000  Level Denver Center
Tue 12:27:24 PM 41.0453 -100.4064 271° West 430 495 34,000  Level Denver Center
Tue 12:28:26 PM 41.0483 -100.5842 271° West 434 499 34,000  Level Denver Center
Tue 12:29:28 PM 41.0503 -100.7364 271° West 437 503 34,000  Level Denver Center
Tue 12:30:30 PM 41.0628 -100.9119 275° West 435 501 34,000  Level Denver Center
Tue 12:31:32 PM 41.0742 -101.0622 276° West 433 498 34,000  Level Denver Center
Tue 12:32:34 PM 41.0881 -101.2400 276° West 435 501 34,000  Level Denver Center
Tue 12:33:36 PM 41.0992 -101.3931 276° West 438 504 34,000  Level Denver Center
Tue 12:34:38 PM 41.1119 -101.5706 276° West 435 501 34,000  Level Denver Center
Tue 12:35:40 PM 41.1236 -101.7236 276° West 437 503 34,000  Level Denver Center
Tue 12:36:42 PM 41.1353 -101.9033 275° West 439 505 34,000  Level Denver Center
Tue 12:37:45 PM 41.1472 -102.0561 276° West 436 502 34,000  Level Denver Center
Tue 12:38:47 PM 41.1578 -102.2361 275° West 439 505 34,000  Level Denver Center
Tue 12:39:49 PM 41.1683 -102.3906 275° West 440 506 34,000  Level Denver Center
Tue 12:40:51 PM 41.1789 -102.5703 275° West 438 504 34,000  Level Denver Center
Tue 12:41:53 PM 41.1889 -102.7250 275° West 441 507 34,000  Level Denver Center
Tue 12:42:55 PM 41.2000 -102.9047 275° West 439 505 34,000  Level Denver Center
Tue 12:43:57 PM 41.2103 -103.0722 275° West 437 503 34,000  Level Denver Center
Tue 12:44:59 PM 41.2206 -103.2267 275° West 438 504 34,000  Level Denver Center
Tue 12:46:01 PM 41.2278 -103.3819 274° West 438 504 34,000  Level Denver Center
Tue 12:47:03 PM 41.2383 -103.5608 275° West 436 502 34,000  Level Denver Center
Tue 12:48:05 PM 41.2467 -103.7147 274° West 435 501 34,000  Level Denver Center
Tue 12:49:07 PM 41.2569 -103.8936 274° West 435 501 34,000  Level Denver Center
Tue 12:50:09 PM 41.2639 -104.0472 273° West 434 499 34,000  Level Denver Center
Tue 12:51:23 PM 41.2733 -104.2256 274° West 434 499 34,000  Level Denver Center
Tue 12:52:26 PM 41.2819 -104.4031 274° West 431 496 34,000  Level Denver Center
Tue 12:53:28 PM 41.2911 -104.5828 274° West 434 499 34,000  Level Denver Center
Tue 12:54:30 PM 41.2978 -104.7358 273° West 434 499 34,000  Level Denver Center
Tue 12:55:32 PM 41.3058 -104.9131 274° West 431 496 34,000  Level Denver Center
Tue 12:56:34 PM 41.3108 -105.0661 273° West 432 497 34,000  Level Denver Center
Tue 12:57:36 PM 41.3194 -105.2450 274° West 433 498 34,000  Level Denver Center
Tue 12:58:38 PM 41.3258 -105.3975 273° West 432 497 34,000  Level Denver Center
Tue 12:59:52 PM 41.3325 -105.5764 273° West 433 498 34,000  Level Denver Center
Tue 01:00:55 PM 41.3406 -105.7547 274° West 432 497 34,000  Level Denver Center
Tue 01:01:57 PM 41.3564 -105.9342 277° West 436 502 34,000  Level Denver Center
Tue 01:02:59 PM 41.3711 -106.0875 277° West 438 504 34,000  Level Denver Center
Tue 01:04:01 PM 41.3861 -106.2661 276° West 435 501 34,000  Level Denver Center
Tue 01:05:03 PM 41.4006 -106.4194 277° West 435 501 34,000  Level Denver Center
Tue 01:06:05 PM 41.4139 -106.6025 276° West 433 498 34,000  Level Denver Center
Tue 01:07:07 PM 41.4283 -106.7569 277° West 437 503 34,000  Level Denver Center
Tue 01:08:09 PM 41.4408 -106.9097 276° West 436 502 34,000  Level Denver Center
Tue 01:09:11 PM 41.4553 -107.0892 276° West 438 504 34,000  Level Denver Center
Tue 01:10:13 PM 41.4661 -107.2431 275° West 435 501 34,000  Level Denver Center
Tue 01:11:15 PM 41.4817 -107.4222 277° West 436 502 34,000  Level Denver Center
Tue 01:12:17 PM 41.4931 -107.5736 276° West 431 496 34,000  Level Denver Center
Tue 01:13:19 PM 41.5053 -107.7478 275° West 423 487 34,000  Level Denver Center
Tue 01:14:21 PM 41.5164 -107.8994 276° West 427 491 34,000  Level Denver Center
Tue 01:15:23 PM 41.5283 -108.0714 275° West 420 483 34,000  Level Denver Center
Tue 01:16:01 PM 41.5356 -108.1711 276° West 420 483 34,000  Level Salt Lake Center
Tue 01:17:03 PM 41.5456 -108.3206 275° West 424 488 34,000  Level Salt Lake Center
Tue 01:18:04 PM 41.5572 -108.4922 275° West 419 482 34,000  Level Salt Lake Center
Tue 01:19:06 PM 41.5678 -108.6411 275° West 420 483 34,000  Level Salt Lake Center
Tue 01:20:07 PM 41.5786 -108.8153 275° West 423 487 34,000  Level Salt Lake Center
Tue 01:21:09 PM 41.5889 -108.9617 275° West 421 484 34,000  Level Salt Lake Center
Tue 01:22:10 PM 41.6331 -109.1256 290° West 430 495 34,000  Level Salt Lake Center
Tue 01:23:12 PM 41.6842 -109.2619 297° West 433 498 34,000  Level Salt Lake Center
Tue 01:24:13 PM 41.7339 -109.3986 296° West 431 496 34,000  Level Salt Lake Center
Tue 01:25:15 PM 41.7919 -109.5586 296° West 430 495 34,000  Level Salt Lake Center
Tue 01:26:16 PM 41.8428 -109.6967 296° West 432 497 34,000  Level Salt Lake Center
Tue 01:27:18 PM 41.9017 -109.8581 296° West 431 496 34,000  Level Salt Lake Center
Tue 01:28:19 PM 41.9522 -109.9972 296° West 434 499 34,000  Level Salt Lake Center
Tue 01:29:21 PM 42.0106 -110.1597 296° West 433 498 34,000  Level Salt Lake Center
Tue 01:30:23 PM 42.0606 -110.2972 296° West 429 494 34,000  Level Salt Lake Center
Tue 01:31:24 PM 42.1106 -110.4350 296° West 428 493 34,000  Level Salt Lake Center
Tue 01:32:26 PM 42.1672 -110.5967 295° West 428 493 34,000  Level Salt Lake Center
Tue 01:33:27 PM 42.2175 -110.7364 296° West 433 498 34,000  Level Salt Lake Center
Tue 01:34:29 PM 42.2742 -110.8972 296° West 427 491 34,000  Level Salt Lake Center
Tue 01:35:30 PM 42.3250 -111.0447 295° West 429 494 34,000  Level Salt Lake Center
Tue 01:36:32 PM 42.3756 -111.1914 295° West 432 497 34,000  Level Salt Lake Center
Tue 01:37:34 PM 42.4253 -111.3350 295° West 426 490 34,000  Level Salt Lake Center
Tue 01:38:35 PM 42.4761 -111.4817 295° West 430 495 34,000  Level Salt Lake Center
Tue 01:39:37 PM 42.5256 -111.6267 295° West 427 491 34,000  Level Salt Lake Center
Tue 01:40:39 PM 42.5853 -111.8006 295° West 426 490 34,000  Level Salt Lake Center
Tue 01:41:40 PM 42.6342 -111.9439 295° West 422 486 34,000  Level Salt Lake Center
Tue 01:42:42 PM 42.6831 -112.0892 295° West 423 487 34,000  Level Salt Lake Center
Tue 01:43:44 PM 42.7350 -112.2411 295° West 422 486 34,000  Level Salt Lake Center
Tue 01:44:46 PM 42.7819 -112.3839 294° West 428 493 34,000  Level Salt Lake Center
Tue 01:45:47 PM 42.8369 -112.5469 295° West 423 487 34,000  Level Salt Lake Center
Tue 01:46:49 PM 42.8783 -112.6869 292° West 419 482 34,000  Level Salt Lake Center
Tue 01:47:51 PM 42.9078 -112.8333 285° West 415 478 34,000  Level Salt Lake Center
Tue 01:48:53 PM 42.9442 -113.0025 286° West 415 478 34,000  Level Salt Lake Center
Tue 01:49:55 PM 42.9739 -113.1467 286° West 411 473 34,000  Level Salt Lake Center
Tue 01:50:56 PM 43.0086 -113.3172 286° West 417 480 34,000 -537 Level Salt Lake Center
Tue 01:51:58 PM 43.0378 -113.4600 286° West 408 470 32,900 -1,452 Descending Salt Lake Center
Tue 01:53:00 PM 43.0714 -113.6239 286° West 402 463 31,000 -1,694 Descending Salt Lake Center
Tue 01:54:02 PM 43.0986 -113.7644 285° West 400 460 29,400 -1,742 Descending Salt Lake Center
Tue 01:55:04 PM 43.1294 -113.9308 284° West 416 479 27,400 -1,839 Descending Salt Lake Center
Tue 01:56:06 PM 43.1581 -114.0714 286° West 387 445 25,600 -1,645 Descending Salt Lake Center
Tue 01:57:08 PM 43.1844 -114.2114 285° West 383 441 24,000 -1,561 Descending Salt Lake Center
Tue 01:58:09 PM 43.2133 -114.3494 286° West 384 442 22,400 -1,561 Descending Salt Lake Center
Tue 01:59:11 PM 43.2425 -114.5019 285° West 367 422 20,800 -1,452 Descending Salt Lake Center
Tue 02:00:13 PM 43.2686 -114.6350 285° West 360 414 19,400 -1,403 Descending Salt Lake Center
Tue 02:01:15 PM 43.2939 -114.7689 285° West 350 403 17,900 -1,355 Descending Salt Lake Center
Tue 02:02:17 PM 43.3175 -114.8986 284° West 337 388 16,600 -1,317 Descending Salt Lake Center
Tue 02:03:18 PM 43.3417 -115.0264 285° West 330 380 15,200 -1,220 Descending Salt Lake Center
Tue 02:04:20 PM 43.3650 -115.1539 284° West 334 384 14,100 -1,065 Descending Salt Lake Center
Tue 02:05:22 PM 43.3897 -115.2872 284° West 344 396 13,000 -532 Descending Salt Lake Center
Tue 02:06:24 PM 43.4117 -115.4061 284° West 336 387 13,000 -341 Level Salt Lake Center
Tue 02:07:25 PM 43.4342 -115.5272 284° West 318 366 12,300 -1,171 Descending Salt Lake Center
Tue 02:08:27 PM 43.4531 -115.6339 284° West 282 325 10,600 -1,694 Descending Salt Lake Center
Tue 02:09:29 PM 43.4717 -115.7381 284° West 270 311 8,800 -1,258 Descending Salt Lake Center
Tue 02:10:31 PM 43.4800 -115.8403 276° West 261 300 8,000 -634 Descending Salt Lake Center
Tue 02:11:32 PM 43.4861 -115.9314 275° West 253 291 7,500 -927 Descending Salt Lake Center
Tue 02:12:34 PM 43.4944 -116.0128 278° West 212 244 6,100 -1,306 Descending Salt Lake Center
Tue 02:13:36 PM 43.5164 -116.0808 294° West 189 217 4,800 -1,258 Descending Salt Lake Center

Login

Don't have an account? Register now (free) for customized features, flight alerts, and more!